Time;durP1;ratioP1;P1;durP2;ratioP2;P2;SDS_P1;SDS_P2;PMS_P1;PMS_P2;Temp;Humidity;BMP_temperature;BMP_pressure;BME280_temperature;BME280_humidity;BME280_pressure;Samples;Min_cycle;Max_cycle;Signal;HPM_P1;HPM_P2
2022/02/22 00:01:36;;;;;;;;;4.75;4.75;;;;;15.61;43.57;96961.59;4952674;28;103097;-75
2022/02/22 00:04:03;;;;;;;;;4.75;4.75;;;;;15.60;43.35;96965.38;4938102;28;109502;-76
2022/02/22 00:06:30;;;;;;;;;6.00;4.00;;;;;15.60;43.60;96970.03;4934338;28;102814;-76
2022/02/22 00:08:57;;;;;;;;;7.00;5.00;;;;;15.59;43.49;96968.38;4934543;28;104519;-75
2022/02/22 00:11:25;;;;;;;;;5.00;5.00;;;;;15.59;43.41;96968.38;4953891;28;102420;-75
2022/02/22 00:13:53;;;;;;;;;5.50;4.75;;;;;15.57;43.40;96976.84;4939224;28;102522;-75
2022/02/22 00:16:20;;;;;;;;;6.75;5.00;;;;;15.56;43.14;96974.38;4949298;28;102709;-75
2022/02/22 00:18:47;;;;;;;;;4.00;3.75;;;;;15.55;43.21;96972.75;4961654;28;104876;-75
2022/02/22 00:21:14;;;;;;;;;5.00;4.50;;;;;15.54;43.53;96976.53;4954712;28;106108;-75
2022/02/22 00:23:44;;;;;;;;;5.00;4.50;;;;;15.52;43.08;96967.84;4956203;28;102395;-75
2022/02/22 00:26:11;;;;;;;;;5.00;4.00;;;;;15.53;43.40;96977.66;4954529;28;102424;-75
2022/02/22 00:28:38;;;;;;;;;5.00;4.00;;;;;15.52;43.44;96986.91;4950254;28;104062;-76
2022/02/22 00:31:05;;;;;;;;;7.00;5.00;;;;;15.51;43.33;96983.38;4955083;28;102398;-75
2022/02/22 00:33:33;;;;;;;;;5.00;4.00;;;;;15.51;43.34;96990.72;4945967;28;102473;-75
2022/02/22 00:36:00;;;;;;;;;3.75;3.75;;;;;15.48;43.29;96988.53;4952778;28;103376;-75
2022/02/22 00:38:27;;;;;;;;;4.75;4.75;;;;;15.46;43.38;96986.06;4949784;28;103856;-75
2022/02/22 00:40:56;;;;;;;;;6.25;4.75;;;;;15.47;43.30;96989.59;4954386;28;102367;-75
2022/02/22 00:43:23;;;;;;;;;4.00;4.00;;;;;15.47;43.29;96989.59;4943130;28;103965;-75
2022/02/22 00:45:50;;;;;;;;;5.25;5.25;;;;;15.45;43.40;96992.59;4926842;28;102583;-75
2022/02/22 00:48:19;;;;;;;;;5.75;4.00;;;;;15.44;43.45;96992.88;4952901;28;103720;-75
2022/02/22 00:50:46;;;;;;;;;5.00;4.00;;;;;15.42;43.39;96995.03;4943677;28;102525;-75
2022/02/22 00:53:13;;;;;;;;;5.00;5.00;;;;;15.43;43.39;97002.13;4948905;28;102363;-75
2022/02/22 00:55:40;;;;;;;;;3.75;3.00;;;;;15.42;43.27;97006.75;4953290;28;102797;-75
2022/02/22 00:58:07;;;;;;;;;4.25;4.00;;;;;15.41;43.27;97010.56;4938395;28;104035;-75
2022/02/22 01:00:34;;;;;;;;;5.50;4.00;;;;;15.40;43.20;97008.13;4954820;28;102636;-75
2022/02/22 01:03:02;;;;;;;;;4.00;4.00;;;;;15.39;43.42;97014.66;4934124;28;103168;-75
2022/02/22 01:05:29;;;;;;;;;5.00;4.25;;;;;15.38;43.06;97004.84;4905030;28;102521;-76
2022/02/22 01:07:56;;;;;;;;;4.00;3.50;;;;;15.37;43.26;97014.09;4936059;28;104310;-73
2022/02/22 01:10:23;;;;;;;;;4.50;4.25;;;;;15.38;43.16;97015.75;4920776;28;102934;-76
2022/02/22 01:12:50;;;;;;;;;4.25;3.00;;;;;15.37;43.19;97022.25;4930730;28;102326;-76
2022/02/22 01:15:18;;;;;;;;;2.75;2.75;;;;;15.36;43.22;97028.78;4951470;28;102567;-76
2022/02/22 01:17:45;;;;;;;;;3.50;3.50;;;;;15.35;43.30;97036.19;4945350;28;104098;-75
2022/02/22 01:20:12;;;;;;;;;5.25;4.00;;;;;15.34;43.09;97031.00;4953781;28;103109;-76
2022/02/22 01:22:40;;;;;;;;;5.00;3.25;;;;;15.33;43.37;97040.25;4954073;28;102712;-76
2022/02/22 01:25:09;;;;;;;;;4.00;3.25;;;;;15.31;43.55;97039.69;4949742;28;102590;-75
2022/02/22 01:27:36;;;;;;;;;6.50;4.50;;;;;15.31;43.36;97042.44;4945601;28;104271;-75
2022/02/22 01:30:05;;;;;;;;;4.00;4.00;;;;;15.31;43.25;97050.59;4943306;28;104920;-75
2022/02/22 01:32:32;;;;;;;;;3.00;3.00;;;;;15.30;43.33;97049.78;4928154;28;102948;-76
2022/02/22 01:34:59;;;;;;;;;2.75;2.75;;;;;15.29;43.22;97048.13;4943950;28;102551;-76
2022/02/22 01:37:26;;;;;;;;;3.00;3.00;;;;;15.28;43.54;97056.56;4931239;28;104396;-75
2022/02/22 01:39:53;;;;;;;;;3.50;3.00;;;;;15.28;43.21;97054.66;4944712;28;104681;-75
2022/02/22 01:42:21;;;;;;;;;3.00;3.00;;;;;15.27;43.05;97063.09;4935182;28;102559;-76
2022/02/22 01:44:48;;;;;;;;;4.00;3.00;;;;;15.26;43.37;97062.28;4946554;28;102651;-75
2022/02/22 01:47:16;;;;;;;;;4.00;4.00;;;;;15.26;43.17;97069.66;4943609;28;104119;-75
2022/02/22 01:49:43;;;;;;;;;2.75;2.75;;;;;15.26;43.39;97078.63;4947132;28;103305;-75
2022/02/22 01:52:10;;;;;;;;;2.00;2.00;;;;;15.24;43.26;97080.78;4931841;28;102563;-75
2022/02/22 01:54:38;;;;;;;;;4.00;3.25;;;;;15.24;43.35;97086.25;4950670;28;102644;-75
2022/02/22 01:57:05;;;;;;;;;3.25;3.25;;;;;15.22;43.31;97091.13;4940483;28;104079;-76
2022/02/22 01:59:32;;;;;;;;;2.50;2.00;;;;;15.22;43.28;97095.78;4947536;28;102570;-75
2022/02/22 02:01:59;;;;;;;;;3.00;2.75;;;;;15.21;43.20;97099.56;4904166;28;102586;-75
2022/02/22 02:04:29;;;;;;;;;3.00;3.00;;;;;15.18;43.37;97101.72;4916653;28;105386;-75
2022/02/22 02:06:57;;;;;;;;;3.00;2.75;;;;;15.18;43.17;97109.09;4922709;28;104151;-75
2022/02/22 02:09:24;;;;;;;;;3.25;3.00;;;;;15.16;43.09;97101.19;4916371;28;103055;-75
2022/02/22 02:11:55;;;;;;;;;3.50;3.00;;;;;15.17;43.30;97118.34;4885765;28;102524;-75
2022/02/22 02:14:23;;;;;;;;;2.00;2.00;;;;;15.15;43.04;97118.63;4909648;28;102354;-75
2022/02/22 02:16:50;;;;;;;;;1.00;1.00;;;;;15.15;43.03;97109.63;4910885;28;103749;-75
2022/02/22 02:19:18;;;;;;;;;3.00;2.00;;;;;15.15;43.10;97113.16;4941832;28;104402;-75
2022/02/22 02:21:46;;;;;;;;;1.75;1.25;;;;;15.15;43.09;97125.97;4947459;28;102798;-75
2022/02/22 02:24:22;;;;;;;;;3.00;2.00;;;;;15.13;43.48;97120.78;4952136;28;102743;-75
2022/02/22 02:26:50;;;;;;;;;2.25;2.00;;;;;15.13;42.63;97122.66;4922072;28;108899;-75
2022/02/22 02:29:19;;;;;;;;;2.00;2.00;;;;;15.12;43.12;97127.31;4941599;28;105215;-75
2022/02/22 02:31:47;;;;;;;;;3.00;2.25;;;;;15.11;43.40;97122.97;4929401;28;102575;-75
2022/02/22 02:34:16;;;;;;;;;3.25;2.00;;;;;15.11;43.12;97136.56;4945427;28;102561;-75
2022/02/22 02:36:43;;;;;;;;;2.00;2.00;;;;;15.09;43.36;97141.44;4912609;28;104368;-75
2022/02/22 02:39:11;;;;;;;;;3.00;3.00;;;;;15.08;43.18;97147.97;4930711;28;104304;-75
2022/02/22 02:41:39;;;;;;;;;2.50;2.50;;;;;15.09;43.53;97151.50;4932023;28;103832;-75
2022/02/22 02:44:11;;;;;;;;;3.25;3.25;;;;;15.07;43.37;97157.25;4921898;28;102769;-75
2022/02/22 02:46:39;;;;;;;;;3.50;3.00;;;;;15.06;43.03;97158.31;4943076;28;103623;-75
2022/02/22 02:49:06;;;;;;;;;2.00;2.00;;;;;15.06;43.23;97182.00;4913654;28;103130;-75
2022/02/22 02:51:34;;;;;;;;;2.75;2.75;;;;;15.06;43.39;97176.56;4925051;28;102641;-75
2022/02/22 02:54:01;;;;;;;;;1.75;1.75;;;;;15.06;43.25;97198.34;4954329;28;102811;-75
2022/02/22 02:56:28;;;;;;;;;3.00;3.00;;;;;15.04;42.92;97204.03;4948641;28;104472;-75
2022/02/22 02:58:56;;;;;;;;;1.00;1.00;;;;;15.03;43.26;97209.75;4942681;28;103780;-75
2022/02/22 03:01:29;;;;;;;;;3.00;2.00;;;;;15.03;43.07;97209.75;4943326;28;103046;-75
2022/02/22 03:03:56;;;;;;;;;1.50;1.50;;;;;15.02;42.92;97219.81;4944222;28;103600;-75
2022/02/22 03:06:23;;;;;;;;;1.25;1.25;;;;;15.00;43.00;97221.97;4944438;28;104085;-75
2022/02/22 03:08:50;;;;;;;;;2.00;2.00;;;;;15.00;43.16;97224.69;4936840;28;102422;-75
2022/02/22 03:11:17;;;;;;;;;2.50;2.50;;;;;15.02;43.54;97224.44;4948645;28;102280;-75
2022/02/22 03:13:44;;;;;;;;;1.75;1.75;;;;;15.01;43.39;97242.69;4946437;28;102626;-75
2022/02/22 03:16:11;;;;;;;;;1.50;1.50;;;;;15.00;43.25;97241.03;4951363;28;104215;-75
2022/02/22 03:18:38;;;;;;;;;1.25;1.00;;;;;14.99;43.41;97244.84;4948998;28;102848;-75
2022/02/22 03:21:05;;;;;;;;;2.00;1.00;;;;;14.99;43.37;97252.19;4941591;28;102914;-75
2022/02/22 03:23:32;;;;;;;;;2.00;2.00;;;;;14.98;43.19;97259.53;4951418;28;102666;-75
2022/02/22 03:25:59;;;;;;;;;1.00;1.00;;;;;14.97;43.24;97260.63;4945608;28;103992;-75
2022/02/22 03:28:29;;;;;;;;;1.00;1.00;;;;;14.96;43.41;97275.31;4936576;28;102508;-75
2022/02/22 03:30:56;;;;;;;;;2.00;2.00;;;;;14.96;43.30;97274.47;4944919;28;105388;-75
2022/02/22 03:33:23;;;;;;;;;2.25;2.25;;;;;14.94;43.10;97282.94;4950247;28;102575;-75
2022/02/22 03:35:50;;;;;;;;;2.00;1.75;;;;;14.92;42.99;97285.06;4950367;28;103844;-75
2022/02/22 03:38:17;;;;;;;;;1.00;1.00;;;;;14.91;43.46;97288.88;4954274;28;102719;-75
2022/02/22 03:40:44;;;;;;;;;1.00;1.00;;;;;14.91;43.38;97294.31;4960105;28;102567;-75
2022/02/22 03:43:11;;;;;;;;;1.75;1.75;;;;;14.91;43.36;97294.31;4947525;28;105129;-75
2022/02/22 03:45:41;;;;;;;;;2.00;2.00;;;;;14.91;43.24;97312.53;4951037;28;104067;-75
2022/02/22 03:48:08;;;;;;;;;1.75;1.75;;;;;14.89;43.09;97309.28;4950084;28;102432;-75
2022/02/22 03:50:35;;;;;;;;;1.50;1.50;;;;;14.90;43.31;97338.97;4955759;28;102497;-75
2022/02/22 03:53:02;;;;;;;;;2.00;1.00;;;;;14.88;43.25;97338.38;4957948;28;104318;-75
2022/02/22 03:55:29;;;;;;;;;2.50;2.50;;;;;14.89;43.11;97342.75;4955525;28;104103;-75
2022/02/22 03:57:56;;;;;;;;;0.00;0.00;;;;;14.89;42.81;97345.47;4947158;28;103810;-75
2022/02/22 04:00:24;;;;;;;;;1.75;1.75;;;;;14.88;43.56;97352.00;4945807;28;103377;-75
2022/02/22 04:02:51;;;;;;;;;1.75;1.00;;;;;14.89;43.59;97361.81;4934419;28;103470;-75
2022/02/22 04:05:20;;;;;;;;;1.00;1.00;;;;;14.88;43.08;97364.78;4924767;28;111221;-75
2022/02/22 04:07:48;;;;;;;;;1.25;1.25;;;;;14.87;43.23;97374.84;4947318;28;102206;-76
2022/02/22 04:10:15;;;;;;;;;1.75;1.00;;;;;14.87;43.15;97374.84;4937748;28;102708;-75
2022/02/22 04:12:45;;;;;;;;;1.00;1.00;;;;;14.84;43.08;97380.00;4947090;28;103075;-75
2022/02/22 04:15:12;;;;;;;;;1.50;1.00;;;;;14.84;43.25;97374.53;4941045;28;104355;-75
2022/02/22 04:17:39;;;;;;;;;2.50;2.00;;;;;14.83;43.40;97373.72;4936655;28;102594;-75
2022/02/22 04:20:07;;;;;;;;;0.25;0.25;;;;;14.83;43.37;97390.03;4945243;28;104390;-75
2022/02/22 04:22:34;;;;;;;;;1.50;1.00;;;;;14.81;43.41;97386.78;4952891;28;102758;-75
2022/02/22 04:25:01;;;;;;;;;0.00;0.00;;;;;14.79;43.33;97398.97;4941900;28;104714;-75
2022/02/22 04:27:28;;;;;;;;;1.00;1.00;;;;;14.78;43.10;97391.88;4931715;28;103025;-75
2022/02/22 04:29:55;;;;;;;;;1.00;1.00;;;;;14.77;42.85;97410.13;4948690;28;105634;-75
2022/02/22 04:32:22;;;;;;;;;1.00;0.25;;;;;14.78;43.62;97419.09;4954340;28;103793;-75
2022/02/22 04:34:50;;;;;;;;;1.00;1.00;;;;;14.78;43.15;97422.66;4949360;28;109460;-76
2022/02/22 04:37:18;;;;;;;;;1.00;1.00;;;;;14.78;43.08;97424.53;4952544;28;102224;-76
2022/02/22 04:39:50;;;;;;;;;1.00;1.00;;;;;14.78;43.56;97438.16;4944346;28;102597;-75
2022/02/22 04:42:17;;;;;;;;;1.00;1.00;;;;;14.77;43.08;97437.31;4946738;28;103579;-76
2022/02/22 04:44:45;;;;;;;;;2.00;1.75;;;;;14.76;43.17;97443.88;4939582;28;104390;-76
2022/02/22 04:47:13;;;;;;;;;2.00;1.00;;;;;14.76;43.26;97440.31;4939664;28;102442;-76
2022/02/22 04:49:40;;;;;;;;;1.00;1.00;;;;;14.74;43.11;97446.00;4942444;28;102470;-76
2022/02/22 04:52:09;;;;;;;;;1.00;1.00;;;;;14.75;43.19;97453.09;4945341;28;104797;-75
2022/02/22 04:54:37;;;;;;;;;1.00;1.00;;;;;14.73;43.09;97455.25;4941806;28;104472;-75
2022/02/22 04:57:05;;;;;;;;;1.00;1.00;;;;;14.73;43.13;97466.94;4948453;28;103734;-75
2022/02/22 04:59:33;;;;;;;;;1.50;0.75;;;;;14.71;43.03;97462.84;4948417;28;103736;-75
2022/02/22 05:02:00;;;;;;;;;1.00;1.00;;;;;14.72;43.21;97464.50;4933660;28;102202;-75
2022/02/22 05:04:27;;;;;;;;;1.00;1.00;;;;;14.70;43.22;97469.38;4947198;28;104308;-75
2022/02/22 05:06:55;;;;;;;;;1.00;1.00;;;;;14.70;43.02;97466.66;4947987;28;102130;-75
2022/02/22 05:09:22;;;;;;;;;1.50;1.00;;;;;14.68;42.84;97474.22;4950402;28;111009;-75
2022/02/22 05:11:49;;;;;;;;;2.75;1.00;;;;;14.67;42.79;97468.00;4939484;28;102654;-75
2022/02/22 05:14:16;;;;;;;;;1.00;0.25;;;;;14.66;43.50;97469.06;4939354;28;103392;-75
2022/02/22 05:16:43;;;;;;;;;0.00;0.00;;;;;14.67;43.40;97470.72;4931451;28;102486;-75
2022/02/22 05:19:10;;;;;;;;;0.25;0.25;;;;;14.67;43.13;97484.31;4933645;28;103069;-75
2022/02/22 05:21:37;;;;;;;;;2.00;1.00;;;;;14.67;42.86;97494.38;4942485;28;102469;-75
2022/02/22 05:24:05;;;;;;;;;1.25;1.00;;;;;14.69;43.05;97508.53;4946002;28;105141;-75
2022/02/22 05:26:33;;;;;;;;;1.00;0.25;;;;;14.68;43.06;97517.75;4931769;28;102461;-75
2022/02/22 05:29:00;;;;;;;;;1.25;1.00;;;;;14.68;43.30;97532.19;4933779;28;103759;-75
2022/02/22 05:31:27;;;;;;;;;0.25;0.00;;;;;14.65;43.18;97526.44;4953178;28;102751;-75
2022/02/22 05:33:54;;;;;;;;;1.25;0.00;;;;;14.66;43.18;97526.19;4931769;28;108901;-75
2022/02/22 05:36:21;;;;;;;;;2.00;0.00;;;;;14.66;43.24;97541.69;4937690;28;103037;-75
2022/02/22 05:38:48;;;;;;;;;1.00;1.00;;;;;14.65;43.64;97540.88;4952263;28;106433;-75
2022/02/22 05:41:17;;;;;;;;;0.50;0.00;;;;;14.63;43.10;97550.38;4943077;28;102727;-75
2022/02/22 05:43:48;;;;;;;;;0.75;0.75;;;;;14.63;42.99;97553.88;4925057;28;104064;-75
2022/02/22 05:46:15;;;;;;;;;1.00;1.00;;;;;14.63;43.59;97555.81;4931305;28;102586;-75
2022/02/22 05:48:42;;;;;;;;;1.00;1.00;;;;;14.59;43.44;97546.53;4928583;28;102786;-75
2022/02/22 05:51:11;;;;;;;;;0.00;0.00;;;;;14.59;43.02;97554.69;4943534;28;102541;-75
2022/02/22 05:53:39;;;;;;;;;0.00;0.00;;;;;14.60;42.82;97561.75;4946195;28;104096;-75
2022/02/22 05:56:06;;;;;;;;;0.00;0.00;;;;;14.61;43.58;97566.13;4947897;28;102580;-75
2022/02/22 05:58:33;;;;;;;;;0.00;0.00;;;;;14.60;43.18;97570.72;4943030;28;102520;-75
2022/02/22 06:01:00;;;;;;;;;0.00;0.00;;;;;14.60;43.15;97575.34;4947691;28;105076;-75
2022/02/22 06:03:27;;;;;;;;;0.25;0.25;;;;;14.60;43.66;97578.88;4930835;28;108986;-75
2022/02/22 06:05:54;;;;;;;;;0.00;0.00;;;;;14.61;43.39;97587.88;4918932;28;102535;-75
2022/02/22 06:08:21;;;;;;;;;0.00;0.00;;;;;14.60;43.32;97588.94;4944793;28;102483;-75
2022/02/22 06:10:48;;;;;;;;;0.00;0.00;;;;;14.59;43.66;97587.31;4930589;28;102510;-75
2022/02/22 06:13:18;;;;;;;;;0.00;0.00;;;;;14.59;43.60;97595.47;4937685;28;104044;-75
2022/02/22 06:15:45;;;;;;;;;0.50;0.50;;;;;14.58;43.14;97600.09;4944352;28;102592;-75
2022/02/22 06:18:12;;;;;;;;;1.00;1.00;;;;;14.57;43.71;97597.63;4948248;28;102754;-75
2022/02/22 06:20:42;;;;;;;;;0.50;0.50;;;;;14.56;43.71;97607.69;4931893;28;103410;-75
2022/02/22 06:23:09;;;;;;;;;0.00;0.00;;;;;14.57;43.21;97603.88;4944194;28;103762;-75
2022/02/22 06:25:36;;;;;;;;;1.75;1.00;;;;;14.56;43.75;97601.41;4953575;28;102406;-75
2022/02/22 06:28:04;;;;;;;;;0.50;0.50;;;;;14.54;43.66;97615.28;4953923;28;102326;-75
2022/02/22 06:30:34;;;;;;;;;0.00;0.00;;;;;14.55;43.60;97607.91;4948568;28;102560;-75
2022/02/22 06:33:01;;;;;;;;;1.00;1.00;;;;;14.53;43.08;97607.34;4955687;28;104127;-75
2022/02/22 06:35:28;;;;;;;;;0.50;0.50;;;;;14.54;43.08;97619.91;4949364;28;102299;-75
2022/02/22 06:37:55;;;;;;;;;1.00;0.00;;;;;14.55;43.58;97624.25;4940673;28;102425;-75
2022/02/22 06:40:25;;;;;;;;;0.00;0.00;;;;;14.56;42.96;97628.63;4951866;28;102779;-75
2022/02/22 06:42:52;;;;;;;;;1.00;1.00;;;;;14.55;43.04;97622.34;4945130;28;104099;-75
2022/02/22 06:45:56;;;;;;;;;0.25;0.25;;;;;14.55;43.63;97632.41;4928070;28;102733;-75
2022/02/22 06:48:23;;;;;;;;;1.00;0.25;;;;;14.55;43.74;97629.69;4942602;28;102507;-75
2022/02/22 06:50:50;;;;;;;;;0.00;0.00;;;;;14.55;43.04;97632.41;4952541;28;102706;-75
2022/02/22 06:53:17;;;;;;;;;0.00;0.00;;;;;14.54;43.27;97638.94;4940799;28;103980;-75
2022/02/22 06:55:44;;;;;;;;;0.75;0.00;;;;;14.55;43.17;97648.72;4943088;28;102614;-75
2022/02/22 06:58:11;;;;;;;;;0.00;0.00;;;;;14.54;43.20;97649.81;4942646;28;102945;-75
2022/02/22 07:00:40;;;;;;;;;0.50;0.50;;;;;14.54;43.21;97653.38;4935896;28;102777;-75
2022/02/22 07:03:07;;;;;;;;;2.00;1.00;;;;;14.52;42.97;97658.22;4945585;28;104137;-75
2022/02/22 07:05:35;;;;;;;;;0.00;0.00;;;;;14.52;43.20;97660.94;4941963;28;102540;-75
2022/02/22 07:08:03;;;;;;;;;0.00;0.00;;;;;14.53;43.43;97661.75;4933303;28;103422;-75
2022/02/22 07:10:30;;;;;;;;;0.00;0.00;;;;;14.53;43.03;97668.03;4936248;28;102593;-75
2022/02/22 07:12:57;;;;;;;;;1.00;1.00;;;;;14.51;43.09;97672.06;4946856;28;104218;-75
2022/02/22 07:15:24;;;;;;;;;2.75;0.50;;;;;14.51;43.53;97675.59;4942227;28;105158;-75
2022/02/22 07:17:58;;;;;;;;;0.50;0.00;;;;;14.51;43.08;97677.50;4953049;28;102264;-75
2022/02/22 07:20:26;;;;;;;;;1.00;1.00;;;;;14.50;43.52;97681.31;4960770;28;103246;-75
2022/02/22 07:22:55;;;;;;;;;0.00;0.00;;;;;14.49;43.59;97682.38;4948515;28;104132;-75
2022/02/22 07:25:23;;;;;;;;;1.00;1.00;;;;;14.50;43.02;97689.47;4946598;28;102371;-75
2022/02/22 07:27:51;;;;;;;;;0.50;0.00;;;;;14.50;43.67;97694.91;4949409;28;102538;-75
2022/02/22 07:30:19;;;;;;;;;0.75;0.75;;;;;14.53;43.25;97705.28;4945111;28;104910;-75
2022/02/22 07:32:46;;;;;;;;;1.75;0.00;;;;;14.53;43.06;97705.28;4940459;28;104007;-75
2022/02/22 07:35:13;;;;;;;;;0.00;0.00;;;;;14.52;43.65;97693.59;4920678;28;102539;-75
2022/02/22 07:37:42;;;;;;;;;0.00;0.00;;;;;14.54;43.09;97694.16;4927393;28;103134;-75
2022/02/22 07:40:11;;;;;;;;;1.00;1.00;;;;;14.56;43.27;97716.50;4949607;28;103510;-75
2022/02/22 07:42:38;;;;;;;;;0.75;0.00;;;;;14.56;43.40;97721.09;4948943;28;104095;-75
2022/02/22 07:45:06;;;;;;;;;1.00;1.00;;;;;14.56;43.41;97716.50;4952824;28;105358;-75
2022/02/22 07:47:33;;;;;;;;;1.00;0.50;;;;;14.59;43.35;97726.06;4951424;28;102745;-75
2022/02/22 07:50:00;;;;;;;;;0.00;0.00;;;;;14.58;43.15;97733.41;4948715;28;102443;-75
2022/02/22 07:52:31;;;;;;;;;1.00;1.00;;;;;14.58;43.45;97735.28;4954226;28;104190;-75
2022/02/22 07:54:58;;;;;;;;;2.00;1.00;;;;;14.56;42.86;97737.44;4926467;28;102550;-75
2022/02/22 07:57:25;;;;;;;;;1.00;1.00;;;;;14.54;43.14;97734.97;4938551;28;102640;-75
2022/02/22 07:59:52;;;;;;;;;1.00;0.25;;;;;14.55;43.36;97742.03;4950371;28;102971;-75
2022/02/22 08:02:19;;;;;;;;;0.00;0.00;;;;;14.53;42.97;97751.53;4946083;28;104191;-75
2022/02/22 08:04:47;;;;;;;;;0.00;0.00;;;;;14.53;42.89;97756.97;4945943;28;102393;-75
2022/02/22 08:07:16;;;;;;;;;1.00;0.75;;;;;14.53;42.86;97759.69;4953862;28;102400;-75
2022/02/22 08:09:45;;;;;;;;;1.00;1.00;;;;;14.53;43.00;97757.81;4947149;28;102578;-75
2022/02/22 08:12:12;;;;;;;;;1.00;1.00;;;;;14.55;43.11;97757.53;4953522;28;105388;-75
2022/02/22 08:14:39;;;;;;;;;0.00;0.00;;;;;14.54;43.22;97762.19;4950688;28;102513;-75
2022/02/22 08:17:06;;;;;;;;;1.25;1.00;;;;;14.56;42.85;97764.63;4948759;28;102418;-75
2022/02/22 08:19:33;;;;;;;;;1.00;0.00;;;;;14.56;43.32;97765.47;4958403;28;102667;-75
2022/02/22 08:22:00;;;;;;;;;2.00;1.00;;;;;14.56;42.93;97772.78;4955859;28;104537;-75
2022/02/22 08:24:27;;;;;;;;;1.00;1.00;;;;;14.56;42.93;97770.91;4949434;28;102611;-75
2022/02/22 08:26:56;;;;;;;;;0.00;0.00;;;;;14.57;43.11;97780.72;4955975;28;102704;-75
2022/02/22 08:29:23;;;;;;;;;1.00;1.00;;;;;14.56;42.75;97781.78;4954847;28;102766;-75
2022/02/22 08:31:51;;;;;;;;;1.25;1.00;;;;;14.57;42.86;97778.00;4946241;28;104237;-75
2022/02/22 08:34:19;;;;;;;;;0.75;0.75;;;;;14.56;42.95;97789.13;4952043;28;102667;-75
2022/02/22 08:36:47;;;;;;;;;0.00;0.00;;;;;14.57;43.13;97778.00;4955705;28;102532;-75
2022/02/22 08:39:14;;;;;;;;;1.00;0.00;;;;;14.59;43.33;97772.31;4951810;28;107211;-75
2022/02/22 08:41:44;;;;;;;;;1.00;0.00;;;;;14.57;43.31;97777.16;4937541;28;104457;-74
2022/02/22 08:44:13;;;;;;;;;0.75;0.75;;;;;14.59;43.15;97788.66;4949485;28;103427;-74
2022/02/22 08:46:40;;;;;;;;;1.25;0.00;;;;;14.61;42.92;97781.88;4938921;28;103303;-75
2022/02/22 08:49:08;;;;;;;;;0.00;0.00;;;;;14.62;42.78;97786.25;4930855;28;103467;-75
2022/02/22 08:51:35;;;;;;;;;1.25;1.00;;;;;14.63;42.84;97792.53;4947459;28;108375;-75
2022/02/22 08:54:04;;;;;;;;;1.00;1.00;;;;;14.64;42.59;97810.47;4924511;28;102677;-75
2022/02/22 08:56:32;;;;;;;;;1.00;0.50;;;;;14.65;43.04;97801.25;4944730;28;103243;-75
2022/02/22 08:58:59;;;;;;;;;2.00;1.00;;;;;14.66;42.67;97792.84;4932161;28;103895;-75
2022/02/22 09:01:26;;;;;;;;;0.00;0.00;;;;;14.65;42.70;97804.78;4938413;28;105229;-75
2022/02/22 09:03:54;;;;;;;;;0.50;0.50;;;;;14.64;42.75;97797.69;4946610;28;102363;-75
2022/02/22 09:06:21;;;;;;;;;0.00;0.00;;;;;14.67;42.76;97818.16;4950730;28;102513;-75
2022/02/22 09:08:48;;;;;;;;;0.75;0.00;;;;;14.67;42.80;97823.59;4945987;28;102684;-75
2022/02/22 09:11:15;;;;;;;;;1.00;0.50;;;;;14.66;42.85;97809.19;4947365;28;104271;-74
2022/02/22 09:13:42;;;;;;;;;1.00;1.00;;;;;14.67;42.89;97819.00;4940234;28;105610;-75
2022/02/22 09:16:09;;;;;;;;;1.00;0.00;;;;;14.67;42.75;97829.88;4946683;28;102667;-75
2022/02/22 09:18:37;;;;;;;;;0.50;0.50;;;;;14.67;43.35;97832.59;4944982;28;103233;-75
2022/02/22 09:21:05;;;;;;;;;0.00;0.00;;;;;14.67;42.77;97842.66;4946383;28;108724;-75
2022/02/22 09:23:33;;;;;;;;;0.25;0.25;;;;;14.65;43.39;97842.06;4953306;28;102266;-74
2022/02/22 09:26:01;;;;;;;;;2.25;1.00;;;;;14.65;43.27;97844.78;4945714;28;102444;-75
2022/02/22 09:28:28;;;;;;;;;1.00;0.25;;;;;14.67;42.80;97845.38;4952808;28;102522;-74
2022/02/22 09:30:55;;;;;;;;;0.00;0.00;;;;;14.67;42.95;97842.66;4943832;28;104225;-75
2022/02/22 09:33:22;;;;;;;;;1.00;0.00;;;;;14.66;42.98;97839.09;4949155;28;102707;-74
2022/02/22 09:35:53;;;;;;;;;0.25;0.00;;;;;14.67;43.13;97842.66;4928557;28;102371;-75
2022/02/22 09:38:20;;;;;;;;;0.00;0.00;;;;;14.66;43.22;97849.16;4937331;28;102717;-75
2022/02/22 09:40:47;;;;;;;;;0.00;0.00;;;;;14.66;42.79;97849.16;4953819;28;104297;-75
2022/02/22 09:43:14;;;;;;;;;0.00;0.00;;;;;14.67;43.35;97848.09;4954793;28;102591;-75
2022/02/22 09:45:41;;;;;;;;;0.00;0.00;;;;;14.67;42.98;97848.94;4952886;28;102918;-75
2022/02/22 09:48:09;;;;;;;;;0.00;0.00;;;;;14.68;43.03;97838.84;4926710;28;102434;-74
2022/02/22 09:50:36;;;;;;;;;0.50;0.50;;;;;14.67;43.26;97846.19;4926725;28;108728;-74
2022/02/22 09:53:04;;;;;;;;;1.75;0.25;;;;;14.68;43.47;97852.44;4948455;28;102347;-75
2022/02/22 09:55:31;;;;;;;;;1.00;1.00;;;;;14.67;43.02;97865.25;4951249;28;102625;-75
2022/02/22 09:57:58;;;;;;;;;0.00;0.00;;;;;14.67;42.96;97858.97;4946320;28;102617;-75
2022/02/22 10:00:28;;;;;;;;;1.00;1.00;;;;;14.66;43.16;97869.03;4944949;28;105076;-75
2022/02/22 10:03:00;;;;;;;;;0.75;0.75;;;;;14.67;43.08;97861.69;4942581;28;102555;-75
2022/02/22 10:05:28;;;;;;;;;0.00;0.00;;;;;14.66;42.96;97871.75;4948195;28;103573;-75
2022/02/22 10:08:02;;;;;;;;;0.00;0.00;;;;;14.66;43.08;97870.94;4935568;28;102594;-75
2022/02/22 10:10:39;;;;;;;;;0.75;0.75;;;;;14.68;43.26;97874.22;4948924;28;104455;-74
2022/02/22 10:13:08;;;;;;;;;0.00;0.00;;;;;14.68;43.22;97879.66;4948912;28;102403;-74
2022/02/22 10:15:41;;;;;;;;;0.00;0.00;;;;;14.66;43.16;97884.53;4951807;28;102538;-74
2022/02/22 10:18:09;;;;;;;;;0.00;0.00;;;;;14.67;43.42;97883.47;4942141;28;102602;-74
2022/02/22 10:20:37;;;;;;;;;0.25;0.25;;;;;14.66;43.15;97879.09;4932617;28;108871;-74
2022/02/22 10:23:06;;;;;;;;;1.00;1.00;;;;;14.67;43.12;97886.19;4945120;28;102503;-75
2022/02/22 10:25:35;;;;;;;;;0.00;0.00;;;;;14.67;43.17;97883.47;4945889;28;103313;-75
2022/02/22 10:28:04;;;;;;;;;1.00;0.25;;;;;14.66;43.21;97885.34;4939375;28;102240;-74
2022/02/22 10:30:40;;;;;;;;;0.25;0.25;;;;;14.67;43.72;97895.19;4947406;28;104317;-75
2022/02/22 10:33:13;;;;;;;;;0.75;0.75;;;;;14.67;43.06;97891.63;4935385;28;102473;-75
2022/02/22 10:35:40;;;;;;;;;0.75;0.75;;;;;14.68;43.46;97893.25;4944708;28;103403;-74
2022/02/22 10:38:11;;;;;;;;;0.00;0.00;;;;;14.66;43.32;97889.97;4947381;28;102477;-75
2022/02/22 10:40:41;;;;;;;;;0.25;0.25;;;;;14.66;43.42;97895.41;4943171;28;109041;-75
2022/02/22 10:43:18;;;;;;;;;0.75;0.50;;;;;14.64;43.10;97898.38;4945276;28;102457;-75
2022/02/22 10:45:52;;;;;;;;;0.00;0.00;;;;;14.66;43.34;97909.03;4929795;28;102452;-75
2022/02/22 10:48:33;;;;;;;;;0.50;0.50;;;;;14.66;43.63;97909.03;4943737;28;102362;-75
2022/02/22 10:51:02;;;;;;;;;1.00;1.00;;;;;14.64;43.15;97903.81;4947038;28;104068;-75
2022/02/22 10:53:33;;;;;;;;;1.00;0.50;;;;;14.66;43.54;97911.75;4952015;28;102311;-75
2022/02/22 10:56:01;;;;;;;;;0.00;0.00;;;;;14.66;43.42;97912.56;4947658;28;102555;-75
2022/02/22 10:58:30;;;;;;;;;0.00;0.00;;;;;14.68;42.95;97915.03;4950219;28;104304;-75
2022/02/22 11:00:58;;;;;;;;;1.75;1.00;;;;;14.67;43.56;97907.97;4955762;28;104074;-75
2022/02/22 11:03:26;;;;;;;;;2.00;1.75;;;;;14.67;43.07;97905.25;4955085;28;102413;-75
2022/02/22 11:05:53;;;;;;;;;1.00;1.00;;;;;14.69;42.96;97903.06;4951984;28;102501;-75
2022/02/22 11:08:25;;;;;;;;;0.50;0.00;;;;;14.69;43.28;97911.25;4943174;28;103644;-75
2022/02/22 11:11:13;;;;;;;;;2.00;1.25;;;;;14.66;43.41;97896.25;4940039;28;104049;-74
2022/02/22 11:13:41;;;;;;;;;1.00;1.00;;;;;14.67;43.82;97908.78;4946852;28;102673;-75
2022/02/22 11:16:13;;;;;;;;;1.00;1.00;;;;;14.68;43.26;97906.88;4955639;28;103425;-75
2022/02/22 11:18:51;;;;;;;;;1.75;1.00;;;;;14.69;43.40;97903.06;4946446;28;102541;-75
2022/02/22 11:21:21;;;;;;;;;0.25;0.25;;;;;14.68;43.63;97915.03;4955628;28;109058;-74
2022/02/22 11:23:48;;;;;;;;;0.00;0.00;;;;;14.69;43.95;97903.06;4948066;28;102641;-75
2022/02/22 11:26:20;;;;;;;;;1.00;0.75;;;;;14.68;43.30;97894.09;4913747;28;102519;-74
2022/02/22 11:28:52;;;;;;;;;1.00;1.00;;;;;14.70;43.35;97911.00;4908149;28;103498;-75